sensor_id;sensor_type;location;lat;lon;timestamp;temperature;humidity
19755;DHT22;10036;47.812;9.274;2023-04-15T00:01:41;4.40;99.90
19755;DHT22;10036;47.812;9.274;2023-04-15T00:04:08;4.30;99.90
19755;DHT22;10036;47.812;9.274;2023-04-15T00:06:36;4.50;99.90
19755;DHT22;10036;47.812;9.274;2023-04-15T00:09:04;4.50;99.90
19755;DHT22;10036;47.812;9.274;2023-04-15T00:11:32;4.50;99.90
19755;DHT22;10036;47.812;9.274;2023-04-15T00:14:00;4.20;99.90
19755;DHT22;10036;47.812;9.274;2023-04-15T00:16:26;4.30;99.90
19755;DHT22;10036;47.812;9.274;2023-04-15T00:18:53;4.30;99.90
19755;DHT22;10036;47.812;9.274;2023-04-15T00:21:21;4.10;99.90
19755;DHT22;10036;47.812;9.274;2023-04-15T00:23:48;4.10;99.90
19755;DHT22;10036;47.812;9.274;2023-04-15T00:26:18;4.20;99.90
19755;DHT22;10036;47.812;9.274;2023-04-15T00:28:46;4.00;99.90
19755;DHT22;10036;47.812;9.274;2023-04-15T00:31:13;4.00;99.90
19755;DHT22;10036;47.812;9.274;2023-04-15T00:33:40;4.00;99.90
19755;DHT22;10036;47.812;9.274;2023-04-15T00:36:07;4.00;99.90
19755;DHT22;10036;47.812;9.274;2023-04-15T00:38:36;3.90;99.90
19755;DHT22;10036;47.812;9.274;2023-04-15T00:41:04;4.00;99.90
19755;DHT22;10036;47.812;9.274;2023-04-15T00:43:30;4.00;99.90
19755;DHT22;10036;47.812;9.274;2023-04-15T00:46:00;4.00;99.90
19755;DHT22;10036;47.812;9.274;2023-04-15T00:48:28;4.30;99.90
19755;DHT22;10036;47.812;9.274;2023-04-15T00:50:56;4.10;99.90
19755;DHT22;10036;47.812;9.274;2023-04-15T00:53:23;4.10;99.90
19755;DHT22;10036;47.812;9.274;2023-04-15T00:55:49;4.00;99.90
19755;DHT22;10036;47.812;9.274;2023-04-15T00:58:17;4.10;99.90
19755;DHT22;10036;47.812;9.274;2023-04-15T01:00:44;4.10;99.90
19755;DHT22;10036;47.812;9.274;2023-04-15T01:03:13;4.00;99.90
19755;DHT22;10036;47.812;9.274;2023-04-15T01:05:40;4.00;99.90
19755;DHT22;10036;47.812;9.274;2023-04-15T01:08:07;4.00;99.90
19755;DHT22;10036;47.812;9.274;2023-04-15T01:10:35;4.00;99.90
19755;DHT22;10036;47.812;9.274;2023-04-15T01:13:02;3.90;99.90
19755;DHT22;10036;47.812;9.274;2023-04-15T01:15:30;3.80;99.90
19755;DHT22;10036;47.812;9.274;2023-04-15T01:17:57;3.80;99.90
19755;DHT22;10036;47.812;9.274;2023-04-15T01:20:26;3.90;99.90
19755;DHT22;10036;47.812;9.274;2023-04-15T01:22:53;3.80;99.90
19755;DHT22;10036;47.812;9.274;2023-04-15T01:25:29;3.70;99.90
19755;DHT22;10036;47.812;9.274;2023-04-15T01:27:57;3.60;99.90
19755;DHT22;10036;47.812;9.274;2023-04-15T01:30:24;3.40;99.90
19755;DHT22;10036;47.812;9.274;2023-04-15T01:32:52;3.50;99.90
19755;DHT22;10036;47.812;9.274;2023-04-15T01:35:19;3.50;99.90
19755;DHT22;10036;47.812;9.274;2023-04-15T01:37:47;3.60;99.90
19755;DHT22;10036;47.812;9.274;2023-04-15T01:40:14;3.40;99.90
19755;DHT22;10036;47.812;9.274;2023-04-15T01:42:42;3.50;99.90
19755;DHT22;10036;47.812;9.274;2023-04-15T01:45:10;3.50;99.90
19755;DHT22;10036;47.812;9.274;2023-04-15T01:47:36;3.70;99.90
19755;DHT22;10036;47.812;9.274;2023-04-15T01:50:04;3.70;99.90
19755;DHT22;10036;47.812;9.274;2023-04-15T01:52:31;3.60;99.90
19755;DHT22;10036;47.812;9.274;2023-04-15T01:54:58;3.60;99.90
19755;DHT22;10036;47.812;9.274;2023-04-15T01:57:25;3.50;99.90
19755;DHT22;10036;47.812;9.274;2023-04-15T01:59:53;3.40;99.90
19755;DHT22;10036;47.812;9.274;2023-04-15T02:02:20;3.50;99.90
19755;DHT22;10036;47.812;9.274;2023-04-15T02:04:47;3.30;99.90
19755;DHT22;10036;47.812;9.274;2023-04-15T02:07:14;3.40;99.90
19755;DHT22;10036;47.812;9.274;2023-04-15T02:09:42;3.40;99.90
19755;DHT22;10036;47.812;9.274;2023-04-15T02:12:10;3.30;99.90
19755;DHT22;10036;47.812;9.274;2023-04-15T02:14:38;3.50;99.90
19755;DHT22;10036;47.812;9.274;2023-04-15T02:17:06;3.20;99.90
19755;DHT22;10036;47.812;9.274;2023-04-15T02:19:33;3.10;99.90
19755;DHT22;10036;47.812;9.274;2023-04-15T02:22:00;3.00;99.90
19755;DHT22;10036;47.812;9.274;2023-04-15T02:24:28;3.20;99.90
19755;DHT22;10036;47.812;9.274;2023-04-15T02:26:55;3.00;99.90
19755;DHT22;10036;47.812;9.274;2023-04-15T02:29:22;2.90;99.90
19755;DHT22;10036;47.812;9.274;2023-04-15T02:31:49;3.00;99.90
19755;DHT22;10036;47.812;9.274;2023-04-15T02:34:17;3.20;99.90
19755;DHT22;10036;47.812;9.274;2023-04-15T02:36:44;3.10;99.90
19755;DHT22;10036;47.812;9.274;2023-04-15T02:39:13;3.00;99.90
19755;DHT22;10036;47.812;9.274;2023-04-15T02:41:41;3.10;99.90
19755;DHT22;10036;47.812;9.274;2023-04-15T02:44:12;3.20;99.90
19755;DHT22;10036;47.812;9.274;2023-04-15T02:46:39;3.10;99.90
19755;DHT22;10036;47.812;9.274;2023-04-15T02:49:06;3.00;99.90
19755;DHT22;10036;47.812;9.274;2023-04-15T02:51:34;2.80;99.90
19755;DHT22;10036;47.812;9.274;2023-04-15T02:54:01;2.80;99.90
19755;DHT22;10036;47.812;9.274;2023-04-15T02:56:28;2.70;99.90
19755;DHT22;10036;47.812;9.274;2023-04-15T02:58:56;2.70;99.90
19755;DHT22;10036;47.812;9.274;2023-04-15T03:01:23;2.80;99.90
19755;DHT22;10036;47.812;9.274;2023-04-15T03:03:50;2.80;99.90
19755;DHT22;10036;47.812;9.274;2023-04-15T03:06:17;2.90;99.90
19755;DHT22;10036;47.812;9.274;2023-04-15T03:08:45;2.90;99.90
19755;DHT22;10036;47.812;9.274;2023-04-15T03:11:13;2.90;99.90
19755;DHT22;10036;47.812;9.274;2023-04-15T03:13:40;2.90;99.90
19755;DHT22;10036;47.812;9.274;2023-04-15T03:16:08;3.00;99.90
19755;DHT22;10036;47.812;9.274;2023-04-15T03:18:34;2.90;99.90
19755;DHT22;10036;47.812;9.274;2023-04-15T03:21:02;2.90;99.90
19755;DHT22;10036;47.812;9.274;2023-04-15T03:23:30;2.80;99.90
19755;DHT22;10036;47.812;9.274;2023-04-15T03:26:00;2.80;99.90
19755;DHT22;10036;47.812;9.274;2023-04-15T03:28:28;2.70;99.90
19755;DHT22;10036;47.812;9.274;2023-04-15T03:30:55;2.60;99.90
19755;DHT22;10036;47.812;9.274;2023-04-15T03:33:22;2.60;99.90
19755;DHT22;10036;47.812;9.274;2023-04-15T03:35:49;2.70;99.90
19755;DHT22;10036;47.812;9.274;2023-04-15T03:38:17;2.70;99.90
19755;DHT22;10036;47.812;9.274;2023-04-15T03:40:46;2.80;99.90
19755;DHT22;10036;47.812;9.274;2023-04-15T03:43:14;2.60;99.90
19755;DHT22;10036;47.812;9.274;2023-04-15T03:45:41;2.50;99.90
19755;DHT22;10036;47.812;9.274;2023-04-15T03:48:08;2.40;99.90
19755;DHT22;10036;47.812;9.274;2023-04-15T03:50:35;2.60;99.90
19755;DHT22;10036;47.812;9.274;2023-04-15T03:53:02;2.70;99.90
19755;DHT22;10036;47.812;9.274;2023-04-15T03:55:29;3.00;99.90
19755;DHT22;10036;47.812;9.274;2023-04-15T03:57:56;2.80;99.90
19755;DHT22;10036;47.812;9.274;2023-04-15T04:00:24;2.80;99.90
19755;DHT22;10036;47.812;9.274;2023-04-15T04:02:51;2.70;99.90
19755;DHT22;10036;47.812;9.274;2023-04-15T04:05:18;2.60;99.90
19755;DHT22;10036;47.812;9.274;2023-04-15T04:07:45;2.40;99.90
19755;DHT22;10036;47.812;9.274;2023-04-15T04:10:12;2.30;99.90
19755;DHT22;10036;47.812;9.274;2023-04-15T04:12:39;2.10;99.90
19755;DHT22;10036;47.812;9.274;2023-04-15T04:15:06;2.30;99.90
19755;DHT22;10036;47.812;9.274;2023-04-15T04:17:35;2.50;99.90
19755;DHT22;10036;47.812;9.274;2023-04-15T04:20:02;2.50;99.90
19755;DHT22;10036;47.812;9.274;2023-04-15T04:22:30;2.40;99.90
19755;DHT22;10036;47.812;9.274;2023-04-15T04:24:57;2.60;99.90
19755;DHT22;10036;47.812;9.274;2023-04-15T04:27:25;2.40;99.90
19755;DHT22;10036;47.812;9.274;2023-04-15T04:29:51;2.40;99.90
19755;DHT22;10036;47.812;9.274;2023-04-15T04:32:18;2.40;99.90
19755;DHT22;10036;47.812;9.274;2023-04-15T04:34:47;2.50;99.90
19755;DHT22;10036;47.812;9.274;2023-04-15T04:37:14;2.40;99.90
19755;DHT22;10036;47.812;9.274;2023-04-15T04:39:41;2.40;99.90
19755;DHT22;10036;47.812;9.274;2023-04-15T04:42:07;2.40;99.90
19755;DHT22;10036;47.812;9.274;2023-04-15T04:44:35;2.40;99.90
19755;DHT22;10036;47.812;9.274;2023-04-15T04:47:01;2.50;99.90
19755;DHT22;10036;47.812;9.274;2023-04-15T04:49:28;2.40;99.90
19755;DHT22;10036;47.812;9.274;2023-04-15T04:51:57;2.30;99.90
19755;DHT22;10036;47.812;9.274;2023-04-15T04:54:24;2.40;99.90
19755;DHT22;10036;47.812;9.274;2023-04-15T04:56:52;2.50;99.90
19755;DHT22;10036;47.812;9.274;2023-04-15T04:59:19;2.40;99.90
19755;DHT22;10036;47.812;9.274;2023-04-15T05:01:46;2.50;99.90
19755;DHT22;10036;47.812;9.274;2023-04-15T05:04:12;2.40;99.90
19755;DHT22;10036;47.812;9.274;2023-04-15T05:06:39;2.40;99.90
19755;DHT22;10036;47.812;9.274;2023-04-15T05:09:08;2.40;99.90
19755;DHT22;10036;47.812;9.274;2023-04-15T05:11:35;2.30;99.90
19755;DHT22;10036;47.812;9.274;2023-04-15T05:14:01;2.40;99.90
19755;DHT22;10036;47.812;9.274;2023-04-15T05:16:28;2.20;99.90
19755;DHT22;10036;47.812;9.274;2023-04-15T05:18:55;2.30;99.90
19755;DHT22;10036;47.812;9.274;2023-04-15T05:21:25;2.40;99.90
19755;DHT22;10036;47.812;9.274;2023-04-15T05:23:53;2.40;99.90
19755;DHT22;10036;47.812;9.274;2023-04-15T05:26:21;2.20;99.90
19755;DHT22;10036;47.812;9.274;2023-04-15T05:28:48;1.70;99.90
19755;DHT22;10036;47.812;9.274;2023-04-15T05:31:15;1.50;99.90
19755;DHT22;10036;47.812;9.274;2023-04-15T05:33:42;1.60;99.90
19755;DHT22;10036;47.812;9.274;2023-04-15T05:36:09;1.90;99.90
19755;DHT22;10036;47.812;9.274;2023-04-15T05:38:36;2.00;99.90
19755;DHT22;10036;47.812;9.274;2023-04-15T05:41:03;2.10;99.90
19755;DHT22;10036;47.812;9.274;2023-04-15T05:43:31;2.20;99.90
19755;DHT22;10036;47.812;9.274;2023-04-15T05:45:58;2.40;99.90
19755;DHT22;10036;47.812;9.274;2023-04-15T05:48:25;2.60;99.90
19755;DHT22;10036;47.812;9.274;2023-04-15T05:50:52;2.80;99.90
19755;DHT22;10036;47.812;9.274;2023-04-15T05:53:19;2.90;99.90
19755;DHT22;10036;47.812;9.274;2023-04-15T05:55:46;2.90;99.90
19755;DHT22;10036;47.812;9.274;2023-04-15T05:58:13;3.10;99.90
19755;DHT22;10036;47.812;9.274;2023-04-15T06:00:41;3.20;99.90
19755;DHT22;10036;47.812;9.274;2023-04-15T06:03:09;3.20;99.90
19755;DHT22;10036;47.812;9.274;2023-04-15T06:05:36;3.20;99.90
19755;DHT22;10036;47.812;9.274;2023-04-15T06:08:03;3.30;99.90
19755;DHT22;10036;47.812;9.274;2023-04-15T06:10:30;3.40;99.90
19755;DHT22;10036;47.812;9.274;2023-04-15T06:13:00;3.40;99.90
19755;DHT22;10036;47.812;9.274;2023-04-15T06:15:27;3.50;99.90
19755;DHT22;10036;47.812;9.274;2023-04-15T06:17:56;3.60;99.90
19755;DHT22;10036;47.812;9.274;2023-04-15T06:20:23;3.70;99.90
19755;DHT22;10036;47.812;9.274;2023-04-15T06:22:50;4.00;99.90
19755;DHT22;10036;47.812;9.274;2023-04-15T06:25:17;3.90;99.90
19755;DHT22;10036;47.812;9.274;2023-04-15T06:27:43;4.00;99.90
19755;DHT22;10036;47.812;9.274;2023-04-15T06:30:11;4.00;99.90
19755;DHT22;10036;47.812;9.274;2023-04-15T06:32:38;4.00;99.90
19755;DHT22;10036;47.812;9.274;2023-04-15T06:35:06;4.10;99.90
19755;DHT22;10036;47.812;9.274;2023-04-15T06:37:33;4.10;99.90
19755;DHT22;10036;47.812;9.274;2023-04-15T06:40:00;4.00;99.90
19755;DHT22;10036;47.812;9.274;2023-04-15T06:42:29;4.10;99.90
19755;DHT22;10036;47.812;9.274;2023-04-15T06:44:56;4.20;99.90
19755;DHT22;10036;47.812;9.274;2023-04-15T06:47:23;4.30;99.90
19755;DHT22;10036;47.812;9.274;2023-04-15T06:49:50;4.50;99.90
19755;DHT22;10036;47.812;9.274;2023-04-15T06:52:19;4.40;99.90
19755;DHT22;10036;47.812;9.274;2023-04-15T06:54:46;4.50;99.90
19755;DHT22;10036;47.812;9.274;2023-04-15T06:57:12;4.60;99.90
19755;DHT22;10036;47.812;9.274;2023-04-15T06:59:39;4.70;99.90
19755;DHT22;10036;47.812;9.274;2023-04-15T07:02:11;4.80;99.90
19755;DHT22;10036;47.812;9.274;2023-04-15T07:04:38;4.90;99.90
19755;DHT22;10036;47.812;9.274;2023-04-15T07:07:05;4.80;99.90
19755;DHT22;10036;47.812;9.274;2023-04-15T07:09:33;4.80;99.90
19755;DHT22;10036;47.812;9.274;2023-04-15T07:12:00;5.00;99.90
19755;DHT22;10036;47.812;9.274;2023-04-15T07:14:27;5.00;99.90
19755;DHT22;10036;47.812;9.274;2023-04-15T07:16:55;5.30;99.90
19755;DHT22;10036;47.812;9.274;2023-04-15T07:19:22;5.30;99.90
19755;DHT22;10036;47.812;9.274;2023-04-15T07:21:49;5.40;99.90
19755;DHT22;10036;47.812;9.274;2023-04-15T07:24:15;5.40;99.90
19755;DHT22;10036;47.812;9.274;2023-04-15T07:26:46;5.50;99.90
19755;DHT22;10036;47.812;9.274;2023-04-15T07:29:13;5.50;99.90
19755;DHT22;10036;47.812;9.274;2023-04-15T07:31:40;5.70;99.90
19755;DHT22;10036;47.812;9.274;2023-04-15T07:34:07;5.80;99.90
19755;DHT22;10036;47.812;9.274;2023-04-15T07:36:34;5.80;99.90
19755;DHT22;10036;47.812;9.274;2023-04-15T07:39:01;5.90;99.90
19755;DHT22;10036;47.812;9.274;2023-04-15T07:41:29;6.00;99.90
19755;DHT22;10036;47.812;9.274;2023-04-15T07:43:57;6.10;99.90
19755;DHT22;10036;47.812;9.274;2023-04-15T07:46:24;6.10;99.90
19755;DHT22;10036;47.812;9.274;2023-04-15T07:48:52;6.40;99.90
19755;DHT22;10036;47.812;9.274;2023-04-15T07:51:19;6.30;99.90
19755;DHT22;10036;47.812;9.274;2023-04-15T07:53:46;6.50;99.90
19755;DHT22;10036;47.812;9.274;2023-04-15T07:56:14;6.60;99.90
19755;DHT22;10036;47.812;9.274;2023-04-15T07:58:41;6.70;99.90
19755;DHT22;10036;47.812;9.274;2023-04-15T08:01:09;6.70;99.90
19755;DHT22;10036;47.812;9.274;2023-04-15T08:03:37;6.90;99.90
19755;DHT22;10036;47.812;9.274;2023-04-15T08:06:04;7.10;99.90
19755;DHT22;10036;47.812;9.274;2023-04-15T08:08:31;7.40;99.90
19755;DHT22;10036;47.812;9.274;2023-04-15T08:10:58;7.50;99.90
19755;DHT22;10036;47.812;9.274;2023-04-15T08:13:25;7.60;99.90
19755;DHT22;10036;47.812;9.274;2023-04-15T08:16:15;7.70;99.90
19755;DHT22;10036;47.812;9.274;2023-04-15T08:18:43;7.80;99.90
19755;DHT22;10036;47.812;9.274;2023-04-15T08:21:10;7.90;99.90
19755;DHT22;10036;47.812;9.274;2023-04-15T08:23:37;8.00;99.90
19755;DHT22;10036;47.812;9.274;2023-04-15T08:26:04;8.00;99.90
19755;DHT22;10036;47.812;9.274;2023-04-15T08:28:32;8.10;99.90
19755;DHT22;10036;47.812;9.274;2023-04-15T08:30:59;8.20;99.90
19755;DHT22;10036;47.812;9.274;2023-04-15T08:33:27;8.30;99.90
19755;DHT22;10036;47.812;9.274;2023-04-15T08:35:54;8.40;99.90
19755;DHT22;10036;47.812;9.274;2023-04-15T08:38:21;8.50;99.90
19755;DHT22;10036;47.812;9.274;2023-04-15T08:40:48;8.60;99.90
19755;DHT22;10036;47.812;9.274;2023-04-15T08:43:20;8.70;99.90
19755;DHT22;10036;47.812;9.274;2023-04-15T08:45:49;8.80;99.90
19755;DHT22;10036;47.812;9.274;2023-04-15T08:48:17;8.80;99.90
19755;DHT22;10036;47.812;9.274;2023-04-15T08:50:46;8.90;99.90
19755;DHT22;10036;47.812;9.274;2023-04-15T08:53:14;8.90;99.90
19755;DHT22;10036;47.812;9.274;2023-04-15T08:55:43;8.80;99.90
19755;DHT22;10036;47.812;9.274;2023-04-15T08:58:10;8.90;99.90
19755;DHT22;10036;47.812;9.274;2023-04-15T09:00:38;9.10;99.90
19755;DHT22;10036;47.812;9.274;2023-04-15T09:03:05;9.30;99.90
19755;DHT22;10036;47.812;9.274;2023-04-15T09:05:33;9.40;99.90
19755;DHT22;10036;47.812;9.274;2023-04-15T09:08:01;9.50;99.90
19755;DHT22;10036;47.812;9.274;2023-04-15T09:10:29;9.70;99.90
19755;DHT22;10036;47.812;9.274;2023-04-15T09:12:56;9.80;99.90
19755;DHT22;10036;47.812;9.274;2023-04-15T09:15:24;9.80;99.90
19755;DHT22;10036;47.812;9.274;2023-04-15T09:17:52;9.80;99.90
19755;DHT22;10036;47.812;9.274;2023-04-15T09:20:19;9.90;99.90
19755;DHT22;10036;47.812;9.274;2023-04-15T09:22:46;9.90;99.90
19755;DHT22;10036;47.812;9.274;2023-04-15T09:25:28;10.20;99.90
19755;DHT22;10036;47.812;9.274;2023-04-15T09:27:56;10.30;99.90
19755;DHT22;10036;47.812;9.274;2023-04-15T09:30:23;10.50;99.90
19755;DHT22;10036;47.812;9.274;2023-04-15T09:32:52;10.60;99.90
19755;DHT22;10036;47.812;9.274;2023-04-15T09:35:19;10.60;99.90
19755;DHT22;10036;47.812;9.274;2023-04-15T09:37:46;10.70;99.90
19755;DHT22;10036;47.812;9.274;2023-04-15T09:40:14;10.70;99.90
19755;DHT22;10036;47.812;9.274;2023-04-15T09:42:57;11.00;99.90
19755;DHT22;10036;47.812;9.274;2023-04-15T09:45:24;11.10;99.90
19755;DHT22;10036;47.812;9.274;2023-04-15T09:47:52;11.20;99.90
19755;DHT22;10036;47.812;9.274;2023-04-15T09:50:19;11.20;99.90
19755;DHT22;10036;47.812;9.274;2023-04-15T09:52:46;11.40;99.90
19755;DHT22;10036;47.812;9.274;2023-04-15T09:55:14;11.40;99.90
19755;DHT22;10036;47.812;9.274;2023-04-15T09:57:41;11.30;99.90
19755;DHT22;10036;47.812;9.274;2023-04-15T10:00:11;11.40;99.90
19755;DHT22;10036;47.812;9.274;2023-04-15T10:02:39;11.60;99.90
19755;DHT22;10036;47.812;9.274;2023-04-15T10:05:07;11.60;99.90
19755;DHT22;10036;47.812;9.274;2023-04-15T10:07:37;11.70;99.90
19755;DHT22;10036;47.812;9.274;2023-04-15T10:10:06;11.70;99.90
19755;DHT22;10036;47.812;9.274;2023-04-15T10:12:36;11.70;99.90
19755;DHT22;10036;47.812;9.274;2023-04-15T10:15:05;11.70;99.90
19755;DHT22;10036;47.812;9.274;2023-04-15T10:17:35;11.90;99.90
19755;DHT22;10036;47.812;9.274;2023-04-15T10:20:03;11.80;99.90
19755;DHT22;10036;47.812;9.274;2023-04-15T10:22:32;11.60;99.90
19755;DHT22;10036;47.812;9.274;2023-04-15T10:24:59;11.70;99.90
19755;DHT22;10036;47.812;9.274;2023-04-15T10:27:26;11.80;99.90
19755;DHT22;10036;47.812;9.274;2023-04-15T10:29:55;12.00;99.90
19755;DHT22;10036;47.812;9.274;2023-04-15T10:32:23;12.00;99.90
19755;DHT22;10036;47.812;9.274;2023-04-15T10:34:51;12.10;99.90
19755;DHT22;10036;47.812;9.274;2023-04-15T10:37:20;12.10;99.90
19755;DHT22;10036;47.812;9.274;2023-04-15T10:39:47;12.30;99.90
19755;DHT22;10036;47.812;9.274;2023-04-15T10:42:16;12.40;99.90
19755;DHT22;10036;47.812;9.274;2023-04-15T10:44:47;12.60;99.90
19755;DHT22;10036;47.812;9.274;2023-04-15T10:47:17;12.60;99.90
19755;DHT22;10036;47.812;9.274;2023-04-15T10:49:47;12.80;99.90
19755;DHT22;10036;47.812;9.274;2023-04-15T10:52:25;13.10;99.90
19755;DHT22;10036;47.812;9.274;2023-04-15T10:55:02;13.30;99.90
19755;DHT22;10036;47.812;9.274;2023-04-15T10:57:33;13.10;99.90
19755;DHT22;10036;47.812;9.274;2023-04-15T11:00:11;13.40;99.90
19755;DHT22;10036;47.812;9.274;2023-04-15T11:02:44;13.10;99.90
19755;DHT22;10036;47.812;9.274;2023-04-15T11:05:12;13.00;99.90
19755;DHT22;10036;47.812;9.274;2023-04-15T11:07:49;13.00;99.90
19755;DHT22;10036;47.812;9.274;2023-04-15T11:10:49;13.10;99.90
19755;DHT22;10036;47.812;9.274;2023-04-15T11:13:21;13.40;99.90
19755;DHT22;10036;47.812;9.274;2023-04-15T11:15:49;13.60;99.90
19755;DHT22;10036;47.812;9.274;2023-04-15T11:18:18;13.90;99.90
19755;DHT22;10036;47.812;9.274;2023-04-15T11:20:47;13.90;99.90
19755;DHT22;10036;47.812;9.274;2023-04-15T11:23:17;13.90;99.90
19755;DHT22;10036;47.812;9.274;2023-04-15T11:25:45;13.80;99.90
19755;DHT22;10036;47.812;9.274;2023-04-15T11:28:13;13.80;99.90
19755;DHT22;10036;47.812;9.274;2023-04-15T11:30:40;14.00;99.90
19755;DHT22;10036;47.812;9.274;2023-04-15T11:33:09;14.20;99.90
19755;DHT22;10036;47.812;9.274;2023-04-15T11:35:40;14.10;99.90
19755;DHT22;10036;47.812;9.274;2023-04-15T11:38:08;14.00;99.90
19755;DHT22;10036;47.812;9.274;2023-04-15T11:40:37;14.00;99.90
19755;DHT22;10036;47.812;9.274;2023-04-15T11:43:06;14.10;99.90
19755;DHT22;10036;47.812;9.274;2023-04-15T11:45:33;14.30;99.90
19755;DHT22;10036;47.812;9.274;2023-04-15T11:48:08;14.40;99.90
19755;DHT22;10036;47.812;9.274;2023-04-15T11:50:35;14.20;99.90
19755;DHT22;10036;47.812;9.274;2023-04-15T11:53:04;14.00;99.90
19755;DHT22;10036;47.812;9.274;2023-04-15T11:55:40;13.60;99.90
19755;DHT22;10036;47.812;9.274;2023-04-15T11:58:09;13.60;99.90
19755;DHT22;10036;47.812;9.274;2023-04-15T12:00:37;13.30;99.90
19755;DHT22;10036;47.812;9.274;2023-04-15T12:03:12;13.50;99.90
19755;DHT22;10036;47.812;9.274;2023-04-15T12:06:10;13.60;99.90
19755;DHT22;10036;47.812;9.274;2023-04-15T12:08:56;13.60;99.90
19755;DHT22;10036;47.812;9.274;2023-04-15T12:11:33;13.60;99.90
19755;DHT22;10036;47.812;9.274;2023-04-15T12:14:06;13.70;99.90
19755;DHT22;10036;47.812;9.274;2023-04-15T12:16:34;13.70;99.90
19755;DHT22;10036;47.812;9.274;2023-04-15T12:19:10;13.50;99.90
19755;DHT22;10036;47.812;9.274;2023-04-15T12:21:38;13.40;99.90
19755;DHT22;10036;47.812;9.274;2023-04-15T12:24:08;13.30;99.90
19755;DHT22;10036;47.812;9.274;2023-04-15T12:26:42;13.30;99.90
19755;DHT22;10036;47.812;9.274;2023-04-15T12:29:10;13.00;99.90
19755;DHT22;10036;47.812;9.274;2023-04-15T12:31:46;12.90;99.90
19755;DHT22;10036;47.812;9.274;2023-04-15T12:34:14;12.80;99.90
19755;DHT22;10036;47.812;9.274;2023-04-15T12:36:41;12.90;99.90
19755;DHT22;10036;47.812;9.274;2023-04-15T12:39:08;12.80;99.90
19755;DHT22;10036;47.812;9.274;2023-04-15T12:41:36;12.80;99.90
19755;DHT22;10036;47.812;9.274;2023-04-15T12:44:04;12.90;99.90
19755;DHT22;10036;47.812;9.274;2023-04-15T12:46:31;12.80;99.90
19755;DHT22;10036;47.812;9.274;2023-04-15T12:48:58;12.70;99.90
19755;DHT22;10036;47.812;9.274;2023-04-15T12:51:25;12.80;99.90
19755;DHT22;10036;47.812;9.274;2023-04-15T12:53:52;12.70;99.90
19755;DHT22;10036;47.812;9.274;2023-04-15T12:56:19;12.80;99.90
19755;DHT22;10036;47.812;9.274;2023-04-15T12:58:48;12.90;99.90
19755;DHT22;10036;47.812;9.274;2023-04-15T13:01:16;13.00;99.90
19755;DHT22;10036;47.812;9.274;2023-04-15T13:03:43;13.10;99.90
19755;DHT22;10036;47.812;9.274;2023-04-15T13:06:10;13.40;99.90
19755;DHT22;10036;47.812;9.274;2023-04-15T13:08:36;13.40;99.90
19755;DHT22;10036;47.812;9.274;2023-04-15T13:11:03;13.30;99.90
19755;DHT22;10036;47.812;9.274;2023-04-15T13:13:31;13.50;99.90
19755;DHT22;10036;47.812;9.274;2023-04-15T13:15:59;13.60;99.90
19755;DHT22;10036;47.812;9.274;2023-04-15T13:18:26;13.70;99.90
19755;DHT22;10036;47.812;9.274;2023-04-15T13:20:55;13.80;99.90
19755;DHT22;10036;47.812;9.274;2023-04-15T13:23:22;13.80;99.90
19755;DHT22;10036;47.812;9.274;2023-04-15T13:25:49;13.80;99.90
19755;DHT22;10036;47.812;9.274;2023-04-15T13:28:16;14.00;99.90
19755;DHT22;10036;47.812;9.274;2023-04-15T13:30:43;14.10;99.90
19755;DHT22;10036;47.812;9.274;2023-04-15T13:33:12;13.70;99.90
19755;DHT22;10036;47.812;9.274;2023-04-15T13:35:39;14.00;99.90
19755;DHT22;10036;47.812;9.274;2023-04-15T13:38:06;14.00;99.90
19755;DHT22;10036;47.812;9.274;2023-04-15T13:40:33;14.50;99.90
19755;DHT22;10036;47.812;9.274;2023-04-15T13:43:00;14.50;99.90
19755;DHT22;10036;47.812;9.274;2023-04-15T13:45:27;14.40;99.90
19755;DHT22;10036;47.812;9.274;2023-04-15T13:47:55;14.40;99.90
19755;DHT22;10036;47.812;9.274;2023-04-15T13:50:23;14.30;99.90
19755;DHT22;10036;47.812;9.274;2023-04-15T13:52:50;14.20;99.90
19755;DHT22;10036;47.812;9.274;2023-04-15T13:55:17;14.30;99.90
19755;DHT22;10036;47.812;9.274;2023-04-15T13:57:44;14.30;99.90
19755;DHT22;10036;47.812;9.274;2023-04-15T14:00:12;14.30;99.90
19755;DHT22;10036;47.812;9.274;2023-04-15T14:02:39;14.40;99.90
19755;DHT22;10036;47.812;9.274;2023-04-15T14:05:06;14.50;99.90
19755;DHT22;10036;47.812;9.274;2023-04-15T14:07:35;14.30;99.90
19755;DHT22;10036;47.812;9.274;2023-04-15T14:10:02;14.00;99.90
19755;DHT22;10036;47.812;9.274;2023-04-15T14:12:29;14.00;99.90
19755;DHT22;10036;47.812;9.274;2023-04-15T14:14:56;14.00;99.90
19755;DHT22;10036;47.812;9.274;2023-04-15T14:17:23;14.10;99.90
19755;DHT22;10036;47.812;9.274;2023-04-15T14:19:50;14.30;99.90
19755;DHT22;10036;47.812;9.274;2023-04-15T14:22:17;14.40;99.90
19755;DHT22;10036;47.812;9.274;2023-04-15T14:24:45;14.50;99.90
19755;DHT22;10036;47.812;9.274;2023-04-15T14:27:13;14.50;99.90
19755;DHT22;10036;47.812;9.274;2023-04-15T14:29:41;14.40;99.90
19755;DHT22;10036;47.812;9.274;2023-04-15T14:32:08;14.30;99.90
19755;DHT22;10036;47.812;9.274;2023-04-15T14:34:34;14.00;99.90
19755;DHT22;10036;47.812;9.274;2023-04-15T14:37:02;13.80;99.90
19755;DHT22;10036;47.812;9.274;2023-04-15T14:39:29;13.90;99.90
19755;DHT22;10036;47.812;9.274;2023-04-15T14:41:57;13.90;99.90
19755;DHT22;10036;47.812;9.274;2023-04-15T14:44:24;13.80;99.90
19755;DHT22;10036;47.812;9.274;2023-04-15T14:46:51;13.70;99.90
19755;DHT22;10036;47.812;9.274;2023-04-15T14:49:19;13.70;99.90
19755;DHT22;10036;47.812;9.274;2023-04-15T14:51:46;13.80;99.90
19755;DHT22;10036;47.812;9.274;2023-04-15T14:54:14;13.80;99.90
19755;DHT22;10036;47.812;9.274;2023-04-15T14:56:41;13.70;99.90
19755;DHT22;10036;47.812;9.274;2023-04-15T14:59:09;13.70;99.90
19755;DHT22;10036;47.812;9.274;2023-04-15T15:01:36;13.50;99.90
19755;DHT22;10036;47.812;9.274;2023-04-15T15:04:03;13.30;99.90
19755;DHT22;10036;47.812;9.274;2023-04-15T15:06:30;13.30;99.90
19755;DHT22;10036;47.812;9.274;2023-04-15T15:08:57;13.10;99.90
19755;DHT22;10036;47.812;9.274;2023-04-15T15:11:24;13.00;99.90
19755;DHT22;10036;47.812;9.274;2023-04-15T15:13:51;12.90;99.90
19755;DHT22;10036;47.812;9.274;2023-04-15T15:16:19;12.90;99.90
19755;DHT22;10036;47.812;9.274;2023-04-15T15:18:46;12.80;99.90
19755;DHT22;10036;47.812;9.274;2023-04-15T15:21:13;12.70;99.90
19755;DHT22;10036;47.812;9.274;2023-04-15T15:23:40;12.50;99.90
19755;DHT22;10036;47.812;9.274;2023-04-15T15:26:07;12.40;99.90
19755;DHT22;10036;47.812;9.274;2023-04-15T15:28:34;12.30;99.90
19755;DHT22;10036;47.812;9.274;2023-04-15T15:31:01;12.20;99.90
19755;DHT22;10036;47.812;9.274;2023-04-15T15:33:30;12.10;99.90
19755;DHT22;10036;47.812;9.274;2023-04-15T15:35:57;12.10;99.90
19755;DHT22;10036;47.812;9.274;2023-04-15T15:38:24;12.00;99.90
19755;DHT22;10036;47.812;9.274;2023-04-15T15:40:51;12.00;99.90
19755;DHT22;10036;47.812;9.274;2023-04-15T15:43:17;12.00;99.90
19755;DHT22;10036;47.812;9.274;2023-04-15T15:45:44;12.00;99.90